sensor_id;sensor_type;location;lat;lon;timestamp;P1;durP1;ratioP1;P2;durP2;ratioP2
8626;SDS011;4351;51.422;6.794;2022-09-14T00:01:40;3.93;;;1.73;;
8626;SDS011;4351;51.422;6.794;2022-09-14T00:04:11;4.73;;;1.93;;
8626;SDS011;4351;51.422;6.794;2022-09-14T00:06:40;3.63;;;1.60;;
8626;SDS011;4351;51.422;6.794;2022-09-14T00:09:11;5.23;;;1.63;;
8626;SDS011;4351;51.422;6.794;2022-09-14T00:11:42;6.17;;;1.67;;
8626;SDS011;4351;51.422;6.794;2022-09-14T00:14:11;4.47;;;1.70;;
8626;SDS011;4351;51.422;6.794;2022-09-14T00:16:40;2.80;;;1.77;;
8626;SDS011;4351;51.422;6.794;2022-09-14T00:19:14;5.63;;;1.90;;
8626;SDS011;4351;51.422;6.794;2022-09-14T00:21:43;6.23;;;1.90;;
8626;SDS011;4351;51.422;6.794;2022-09-14T00:24:12;5.73;;;1.70;;
8626;SDS011;4351;51.422;6.794;2022-09-14T00:26:41;4.83;;;1.70;;
8626;SDS011;4351;51.422;6.794;2022-09-14T00:29:10;5.67;;;1.77;;
8626;SDS011;4351;51.422;6.794;2022-09-14T00:31:38;4.73;;;1.90;;
8626;SDS011;4351;51.422;6.794;2022-09-14T00:34:08;5.17;;;1.83;;
8626;SDS011;4351;51.422;6.794;2022-09-14T00:36:39;6.40;;;1.80;;
8626;SDS011;4351;51.422;6.794;2022-09-14T00:39:10;5.70;;;1.73;;
8626;SDS011;4351;51.422;6.794;2022-09-14T00:41:42;5.50;;;1.50;;
8626;SDS011;4351;51.422;6.794;2022-09-14T00:47:27;6.20;;;1.93;;
8626;SDS011;4351;51.422;6.794;2022-09-14T00:49:58;4.43;;;1.80;;
8626;SDS011;4351;51.422;6.794;2022-09-14T00:52:29;7.53;;;1.80;;
8626;SDS011;4351;51.422;6.794;2022-09-14T00:55:01;5.23;;;1.63;;
8626;SDS011;4351;51.422;6.794;2022-09-14T00:57:34;4.83;;;1.70;;
8626;SDS011;4351;51.422;6.794;2022-09-14T01:00:06;6.07;;;1.80;;
8626;SDS011;4351;51.422;6.794;2022-09-14T01:02:37;4.17;;;1.50;;
8626;SDS011;4351;51.422;6.794;2022-09-14T01:05:06;6.87;;;1.70;;
8626;SDS011;4351;51.422;6.794;2022-09-14T01:07:42;5.87;;;1.77;;
8626;SDS011;4351;51.422;6.794;2022-09-14T01:10:19;3.27;;;1.30;;
8626;SDS011;4351;51.422;6.794;2022-09-14T01:13:00;6.30;;;1.77;;
8626;SDS011;4351;51.422;6.794;2022-09-14T01:15:41;2.70;;;1.57;;
8626;SDS011;4351;51.422;6.794;2022-09-14T01:18:19;6.67;;;1.77;;
8626;SDS011;4351;51.422;6.794;2022-09-14T01:20:52;6.03;;;1.60;;
8626;SDS011;4351;51.422;6.794;2022-09-14T01:23:26;5.17;;;1.40;;
8626;SDS011;4351;51.422;6.794;2022-09-14T01:26:16;5.47;;;1.80;;
8626;SDS011;4351;51.422;6.794;2022-09-14T01:29:04;5.70;;;1.70;;
8626;SDS011;4351;51.422;6.794;2022-09-14T01:31:42;4.87;;;1.70;;
8626;SDS011;4351;51.422;6.794;2022-09-14T01:34:18;6.17;;;1.70;;
8626;SDS011;4351;51.422;6.794;2022-09-14T01:36:53;6.20;;;1.67;;
8626;SDS011;4351;51.422;6.794;2022-09-14T01:39:25;7.53;;;2.10;;
8626;SDS011;4351;51.422;6.794;2022-09-14T01:41:56;8.03;;;1.87;;
8626;SDS011;4351;51.422;6.794;2022-09-14T01:44:29;7.77;;;1.67;;
8626;SDS011;4351;51.422;6.794;2022-09-14T01:47:00;7.67;;;1.83;;
8626;SDS011;4351;51.422;6.794;2022-09-14T01:49:33;6.03;;;1.70;;
8626;SDS011;4351;51.422;6.794;2022-09-14T01:52:07;9.07;;;2.00;;
8626;SDS011;4351;51.422;6.794;2022-09-14T01:54:41;5.73;;;1.70;;
8626;SDS011;4351;51.422;6.794;2022-09-14T01:57:12;9.00;;;2.10;;
8626;SDS011;4351;51.422;6.794;2022-09-14T01:59:48;5.83;;;1.73;;
8626;SDS011;4351;51.422;6.794;2022-09-14T02:02:21;6.67;;;1.90;;
8626;SDS011;4351;51.422;6.794;2022-09-14T02:04:56;7.20;;;1.80;;
8626;SDS011;4351;51.422;6.794;2022-09-14T02:07:29;5.30;;;1.43;;
8626;SDS011;4351;51.422;6.794;2022-09-14T02:09:58;6.93;;;2.17;;
8626;SDS011;4351;51.422;6.794;2022-09-14T02:12:26;6.97;;;2.03;;
8626;SDS011;4351;51.422;6.794;2022-09-14T02:14:56;5.63;;;1.70;;
8626;SDS011;4351;51.422;6.794;2022-09-14T02:17:24;7.93;;;2.20;;
8626;SDS011;4351;51.422;6.794;2022-09-14T02:19:55;7.33;;;1.87;;
8626;SDS011;4351;51.422;6.794;2022-09-14T02:22:26;7.03;;;1.53;;
8626;SDS011;4351;51.422;6.794;2022-09-14T02:24:55;6.00;;;1.77;;
8626;SDS011;4351;51.422;6.794;2022-09-14T02:27:24;6.60;;;1.90;;
8626;SDS011;4351;51.422;6.794;2022-09-14T02:29:52;13.23;;;2.53;;
8626;SDS011;4351;51.422;6.794;2022-09-14T02:32:23;6.27;;;2.10;;
8626;SDS011;4351;51.422;6.794;2022-09-14T02:34:59;6.03;;;1.87;;
8626;SDS011;4351;51.422;6.794;2022-09-14T02:37:43;7.23;;;2.20;;
8626;SDS011;4351;51.422;6.794;2022-09-14T02:40:18;7.77;;;2.20;;
8626;SDS011;4351;51.422;6.794;2022-09-14T02:42:58;8.33;;;1.77;;
8626;SDS011;4351;51.422;6.794;2022-09-14T02:45:34;7.50;;;2.10;;
8626;SDS011;4351;51.422;6.794;2022-09-14T02:48:10;10.67;;;2.20;;
8626;SDS011;4351;51.422;6.794;2022-09-14T02:50:48;11.87;;;2.30;;
8626;SDS011;4351;51.422;6.794;2022-09-14T02:53:23;11.67;;;2.13;;
8626;SDS011;4351;51.422;6.794;2022-09-14T02:55:56;7.73;;;1.90;;
8626;SDS011;4351;51.422;6.794;2022-09-14T02:58:35;9.40;;;2.23;;
8626;SDS011;4351;51.422;6.794;2022-09-14T03:01:05;7.33;;;1.83;;
8626;SDS011;4351;51.422;6.794;2022-09-14T03:03:36;5.83;;;1.80;;
8626;SDS011;4351;51.422;6.794;2022-09-14T03:06:05;6.53;;;1.83;;
8626;SDS011;4351;51.422;6.794;2022-09-14T03:08:34;7.13;;;1.87;;
8626;SDS011;4351;51.422;6.794;2022-09-14T03:11:02;7.67;;;2.10;;
8626;SDS011;4351;51.422;6.794;2022-09-14T03:13:31;6.97;;;2.10;;
8626;SDS011;4351;51.422;6.794;2022-09-14T03:16:03;12.73;;;2.07;;
8626;SDS011;4351;51.422;6.794;2022-09-14T03:18:32;6.53;;;1.90;;
8626;SDS011;4351;51.422;6.794;2022-09-14T03:21:05;7.47;;;2.20;;
8626;SDS011;4351;51.422;6.794;2022-09-14T03:23:35;8.27;;;2.20;;
8626;SDS011;4351;51.422;6.794;2022-09-14T03:26:07;9.03;;;2.17;;
8626;SDS011;4351;51.422;6.794;2022-09-14T03:28:37;9.00;;;2.10;;
8626;SDS011;4351;51.422;6.794;2022-09-14T03:31:06;8.13;;;2.13;;
8626;SDS011;4351;51.422;6.794;2022-09-14T03:33:35;4.43;;;1.70;;
8626;SDS011;4351;51.422;6.794;2022-09-14T03:36:10;8.80;;;1.87;;
8626;SDS011;4351;51.422;6.794;2022-09-14T03:38:41;4.40;;;1.80;;
8626;SDS011;4351;51.422;6.794;2022-09-14T03:41:11;7.67;;;1.90;;
8626;SDS011;4351;51.422;6.794;2022-09-14T03:43:39;16.17;;;2.70;;
8626;SDS011;4351;51.422;6.794;2022-09-14T03:46:09;10.50;;;1.87;;
8626;SDS011;4351;51.422;6.794;2022-09-14T03:48:39;6.83;;;1.93;;
8626;SDS011;4351;51.422;6.794;2022-09-14T03:51:09;7.40;;;2.03;;
8626;SDS011;4351;51.422;6.794;2022-09-14T03:53:40;4.57;;;1.90;;
8626;SDS011;4351;51.422;6.794;2022-09-14T03:56:10;6.03;;;1.77;;
8626;SDS011;4351;51.422;6.794;2022-09-14T03:58:40;4.43;;;1.67;;
8626;SDS011;4351;51.422;6.794;2022-09-14T04:01:09;5.03;;;1.60;;
8626;SDS011;4351;51.422;6.794;2022-09-14T04:03:40;5.10;;;1.47;;
8626;SDS011;4351;51.422;6.794;2022-09-14T04:06:10;7.60;;;1.90;;
8626;SDS011;4351;51.422;6.794;2022-09-14T04:08:40;5.20;;;1.70;;
8626;SDS011;4351;51.422;6.794;2022-09-14T04:11:10;7.20;;;1.83;;
8626;SDS011;4351;51.422;6.794;2022-09-14T04:13:40;9.30;;;2.00;;
8626;SDS011;4351;51.422;6.794;2022-09-14T04:16:08;4.87;;;2.00;;
8626;SDS011;4351;51.422;6.794;2022-09-14T04:18:37;8.97;;;1.90;;
8626;SDS011;4351;51.422;6.794;2022-09-14T04:21:06;5.77;;;2.03;;
8626;SDS011;4351;51.422;6.794;2022-09-14T04:23:36;4.70;;;1.80;;
8626;SDS011;4351;51.422;6.794;2022-09-14T04:26:25;5.13;;;1.80;;
8626;SDS011;4351;51.422;6.794;2022-09-14T04:28:55;6.60;;;2.47;;
8626;SDS011;4351;51.422;6.794;2022-09-14T04:31:24;5.47;;;1.80;;
8626;SDS011;4351;51.422;6.794;2022-09-14T04:33:53;4.57;;;1.73;;
8626;SDS011;4351;51.422;6.794;2022-09-14T04:36:23;6.43;;;1.50;;
8626;SDS011;4351;51.422;6.794;2022-09-14T04:38:56;7.93;;;2.30;;
8626;SDS011;4351;51.422;6.794;2022-09-14T04:41:26;8.07;;;1.70;;
8626;SDS011;4351;51.422;6.794;2022-09-14T04:43:55;8.20;;;2.33;;
8626;SDS011;4351;51.422;6.794;2022-09-14T04:46:25;4.07;;;2.07;;
8626;SDS011;4351;51.422;6.794;2022-09-14T04:48:57;8.23;;;2.33;;
8626;SDS011;4351;51.422;6.794;2022-09-14T04:51:27;8.53;;;2.40;;
8626;SDS011;4351;51.422;6.794;2022-09-14T04:53:58;9.73;;;2.43;;
8626;SDS011;4351;51.422;6.794;2022-09-14T04:56:29;7.17;;;2.53;;
8626;SDS011;4351;51.422;6.794;2022-09-14T04:58:59;13.17;;;3.07;;
8626;SDS011;4351;51.422;6.794;2022-09-14T05:01:31;6.53;;;2.33;;
8626;SDS011;4351;51.422;6.794;2022-09-14T05:04:02;7.57;;;2.40;;
8626;SDS011;4351;51.422;6.794;2022-09-14T05:06:33;7.73;;;2.40;;
8626;SDS011;4351;51.422;6.794;2022-09-14T05:09:05;7.77;;;2.57;;
8626;SDS011;4351;51.422;6.794;2022-09-14T05:11:40;7.30;;;2.60;;
8626;SDS011;4351;51.422;6.794;2022-09-14T05:14:08;4.33;;;2.07;;
8626;SDS011;4351;51.422;6.794;2022-09-14T05:16:41;8.33;;;2.33;;
8626;SDS011;4351;51.422;6.794;2022-09-14T05:19:10;8.23;;;2.20;;
8626;SDS011;4351;51.422;6.794;2022-09-14T05:21:40;9.87;;;2.37;;
8626;SDS011;4351;51.422;6.794;2022-09-14T05:24:13;6.80;;;2.90;;
8626;SDS011;4351;51.422;6.794;2022-09-14T05:26:43;7.47;;;2.40;;
8626;SDS011;4351;51.422;6.794;2022-09-14T05:29:12;8.73;;;2.17;;
8626;SDS011;4351;51.422;6.794;2022-09-14T05:31:41;8.90;;;2.27;;
8626;SDS011;4351;51.422;6.794;2022-09-14T05:34:10;6.80;;;2.17;;
8626;SDS011;4351;51.422;6.794;2022-09-14T05:36:39;8.13;;;2.00;;
8626;SDS011;4351;51.422;6.794;2022-09-14T05:39:07;11.97;;;2.50;;
8626;SDS011;4351;51.422;6.794;2022-09-14T05:41:37;8.67;;;2.50;;
8626;SDS011;4351;51.422;6.794;2022-09-14T05:44:06;9.53;;;2.30;;
8626;SDS011;4351;51.422;6.794;2022-09-14T05:46:34;6.20;;;2.10;;
8626;SDS011;4351;51.422;6.794;2022-09-14T05:49:03;5.67;;;1.93;;
8626;SDS011;4351;51.422;6.794;2022-09-14T05:51:31;6.63;;;2.20;;
8626;SDS011;4351;51.422;6.794;2022-09-14T05:53:59;8.43;;;2.07;;
8626;SDS011;4351;51.422;6.794;2022-09-14T05:56:28;10.27;;;2.40;;
8626;SDS011;4351;51.422;6.794;2022-09-14T05:58:59;7.87;;;2.23;;
8626;SDS011;4351;51.422;6.794;2022-09-14T06:01:28;4.70;;;1.97;;
8626;SDS011;4351;51.422;6.794;2022-09-14T06:03:59;10.13;;;2.50;;
8626;SDS011;4351;51.422;6.794;2022-09-14T06:06:29;7.63;;;2.10;;
8626;SDS011;4351;51.422;6.794;2022-09-14T06:08:58;4.37;;;2.20;;
8626;SDS011;4351;51.422;6.794;2022-09-14T06:11:28;8.07;;;2.10;;
8626;SDS011;4351;51.422;6.794;2022-09-14T06:13:59;9.53;;;2.73;;
8626;SDS011;4351;51.422;6.794;2022-09-14T06:16:31;9.53;;;2.50;;
8626;SDS011;4351;51.422;6.794;2022-09-14T06:19:00;6.47;;;2.30;;
8626;SDS011;4351;51.422;6.794;2022-09-14T06:21:31;10.50;;;2.43;;
8626;SDS011;4351;51.422;6.794;2022-09-14T06:24:02;5.07;;;2.20;;
8626;SDS011;4351;51.422;6.794;2022-09-14T06:26:34;6.30;;;2.23;;
8626;SDS011;4351;51.422;6.794;2022-09-14T06:29:04;9.03;;;2.63;;
8626;SDS011;4351;51.422;6.794;2022-09-14T06:31:35;11.73;;;2.57;;
8626;SDS011;4351;51.422;6.794;2022-09-14T06:34:04;7.63;;;3.00;;
8626;SDS011;4351;51.422;6.794;2022-09-14T06:36:36;7.07;;;2.83;;
8626;SDS011;4351;51.422;6.794;2022-09-14T06:39:04;6.97;;;2.73;;
8626;SDS011;4351;51.422;6.794;2022-09-14T06:41:42;11.37;;;3.40;;
8626;SDS011;4351;51.422;6.794;2022-09-14T06:44:57;6.33;;;2.53;;
8626;SDS011;4351;51.422;6.794;2022-09-14T06:47:42;8.20;;;2.80;;
8626;SDS011;4351;51.422;6.794;2022-09-14T06:50:49;10.90;;;3.10;;
8626;SDS011;4351;51.422;6.794;2022-09-14T06:53:18;6.97;;;2.63;;
8626;SDS011;4351;51.422;6.794;2022-09-14T06:55:50;6.47;;;2.93;;
8626;SDS011;4351;51.422;6.794;2022-09-14T06:58:19;7.17;;;3.00;;
8626;SDS011;4351;51.422;6.794;2022-09-14T07:00:49;10.93;;;3.77;;
8626;SDS011;4351;51.422;6.794;2022-09-14T07:03:17;6.90;;;3.00;;
8626;SDS011;4351;51.422;6.794;2022-09-14T07:05:45;8.13;;;3.20;;
8626;SDS011;4351;51.422;6.794;2022-09-14T07:08:14;8.50;;;3.40;;
8626;SDS011;4351;51.422;6.794;2022-09-14T07:10:54;8.63;;;3.30;;
8626;SDS011;4351;51.422;6.794;2022-09-14T07:13:22;7.67;;;3.50;;
8626;SDS011;4351;51.422;6.794;2022-09-14T07:15:52;5.90;;;3.43;;
8626;SDS011;4351;51.422;6.794;2022-09-14T07:18:21;9.77;;;3.50;;
8626;SDS011;4351;51.422;6.794;2022-09-14T07:20:50;8.10;;;3.60;;
8626;SDS011;4351;51.422;6.794;2022-09-14T07:23:19;9.53;;;3.73;;
8626;SDS011;4351;51.422;6.794;2022-09-14T07:25:57;7.63;;;3.40;;
8626;SDS011;4351;51.422;6.794;2022-09-14T07:28:27;11.40;;;3.60;;
8626;SDS011;4351;51.422;6.794;2022-09-14T07:31:00;12.53;;;3.60;;
8626;SDS011;4351;51.422;6.794;2022-09-14T07:33:29;7.23;;;3.10;;
8626;SDS011;4351;51.422;6.794;2022-09-14T07:36:04;8.90;;;3.70;;
8626;SDS011;4351;51.422;6.794;2022-09-14T07:38:33;12.47;;;3.07;;
8626;SDS011;4351;51.422;6.794;2022-09-14T07:46:22;7.27;;;3.17;;
8626;SDS011;4351;51.422;6.794;2022-09-14T07:48:59;9.70;;;3.60;;
8626;SDS011;4351;51.422;6.794;2022-09-14T07:51:28;8.97;;;3.80;;
8626;SDS011;4351;51.422;6.794;2022-09-14T07:54:00;6.40;;;3.30;;
8626;SDS011;4351;51.422;6.794;2022-09-14T07:56:29;8.53;;;3.53;;
8626;SDS011;4351;51.422;6.794;2022-09-14T07:59:01;8.47;;;3.37;;
8626;SDS011;4351;51.422;6.794;2022-09-14T08:01:55;8.30;;;3.27;;
8626;SDS011;4351;51.422;6.794;2022-09-14T08:04:24;7.07;;;3.30;;
8626;SDS011;4351;51.422;6.794;2022-09-14T08:07:05;8.90;;;3.30;;
8626;SDS011;4351;51.422;6.794;2022-09-14T08:09:36;4.97;;;3.10;;
8626;SDS011;4351;51.422;6.794;2022-09-14T08:12:07;9.17;;;3.33;;
8626;SDS011;4351;51.422;6.794;2022-09-14T08:14:36;8.93;;;3.17;;
8626;SDS011;4351;51.422;6.794;2022-09-14T08:17:07;9.80;;;3.37;;
8626;SDS011;4351;51.422;6.794;2022-09-14T08:19:41;7.80;;;3.00;;
8626;SDS011;4351;51.422;6.794;2022-09-14T08:22:22;10.07;;;3.33;;
8626;SDS011;4351;51.422;6.794;2022-09-14T08:24:51;7.20;;;3.23;;
8626;SDS011;4351;51.422;6.794;2022-09-14T08:27:19;8.33;;;3.00;;
8626;SDS011;4351;51.422;6.794;2022-09-14T08:29:47;6.20;;;2.40;;
8626;SDS011;4351;51.422;6.794;2022-09-14T08:32:17;4.87;;;2.53;;
8626;SDS011;4351;51.422;6.794;2022-09-14T08:34:45;5.93;;;2.50;;
8626;SDS011;4351;51.422;6.794;2022-09-14T08:37:14;6.03;;;2.30;;
8626;SDS011;4351;51.422;6.794;2022-09-14T08:39:46;6.63;;;3.03;;
8626;SDS011;4351;51.422;6.794;2022-09-14T08:42:17;7.50;;;2.80;;
8626;SDS011;4351;51.422;6.794;2022-09-14T08:44:49;6.53;;;3.00;;
8626;SDS011;4351;51.422;6.794;2022-09-14T08:47:25;4.43;;;2.40;;
8626;SDS011;4351;51.422;6.794;2022-09-14T08:50:00;5.43;;;2.07;;
8626;SDS011;4351;51.422;6.794;2022-09-14T08:52:33;8.40;;;2.30;;
8626;SDS011;4351;51.422;6.794;2022-09-14T08:55:13;4.93;;;2.33;;
8626;SDS011;4351;51.422;6.794;2022-09-14T08:57:47;8.47;;;2.77;;
8626;SDS011;4351;51.422;6.794;2022-09-14T09:00:20;6.00;;;2.27;;
8626;SDS011;4351;51.422;6.794;2022-09-14T09:03:09;6.30;;;2.60;;
8626;SDS011;4351;51.422;6.794;2022-09-14T09:05:51;7.97;;;2.77;;
8626;SDS011;4351;51.422;6.794;2022-09-14T09:08:26;7.63;;;3.13;;
8626;SDS011;4351;51.422;6.794;2022-09-14T09:11:03;7.37;;;2.70;;
8626;SDS011;4351;51.422;6.794;2022-09-14T09:13:35;8.40;;;2.43;;
8626;SDS011;4351;51.422;6.794;2022-09-14T09:16:06;4.80;;;2.40;;
8626;SDS011;4351;51.422;6.794;2022-09-14T09:18:40;6.37;;;2.13;;
8626;SDS011;4351;51.422;6.794;2022-09-14T09:21:13;8.20;;;2.70;;
8626;SDS011;4351;51.422;6.794;2022-09-14T09:23:43;10.90;;;2.80;;
8626;SDS011;4351;51.422;6.794;2022-09-14T09:26:14;6.63;;;2.80;;
8626;SDS011;4351;51.422;6.794;2022-09-14T09:28:51;9.80;;;2.70;;
8626;SDS011;4351;51.422;6.794;2022-09-14T09:31:23;8.50;;;2.93;;
8626;SDS011;4351;51.422;6.794;2022-09-14T09:34:26;5.53;;;2.60;;
8626;SDS011;4351;51.422;6.794;2022-09-14T09:37:12;6.27;;;2.87;;
8626;SDS011;4351;51.422;6.794;2022-09-14T09:39:44;6.17;;;2.57;;
8626;SDS011;4351;51.422;6.794;2022-09-14T09:42:14;5.10;;;2.73;;
8626;SDS011;4351;51.422;6.794;2022-09-14T09:44:55;5.40;;;2.90;;
8626;SDS011;4351;51.422;6.794;2022-09-14T09:47:32;7.13;;;3.00;;
8626;SDS011;4351;51.422;6.794;2022-09-14T09:50:19;8.47;;;3.30;;
8626;SDS011;4351;51.422;6.794;2022-09-14T09:52:53;7.00;;;3.27;;
8626;SDS011;4351;51.422;6.794;2022-09-14T09:55:33;7.10;;;3.23;;
8626;SDS011;4351;51.422;6.794;2022-09-14T09:58:33;5.70;;;3.10;;
8626;SDS011;4351;51.422;6.794;2022-09-14T10:01:28;9.90;;;3.40;;
8626;SDS011;4351;51.422;6.794;2022-09-14T10:03:59;5.17;;;2.80;;
8626;SDS011;4351;51.422;6.794;2022-09-14T10:06:43;7.57;;;3.07;;
8626;SDS011;4351;51.422;6.794;2022-09-14T10:09:16;7.33;;;2.63;;
8626;SDS011;4351;51.422;6.794;2022-09-14T10:11:56;5.90;;;2.70;;
8626;SDS011;4351;51.422;6.794;2022-09-14T10:15:05;5.77;;;2.93;;
8626;SDS011;4351;51.422;6.794;2022-09-14T10:17:53;8.53;;;3.37;;
8626;SDS011;4351;51.422;6.794;2022-09-14T10:20:32;6.87;;;2.90;;
8626;SDS011;4351;51.422;6.794;2022-09-14T10:23:20;5.93;;;3.20;;
8626;SDS011;4351;51.422;6.794;2022-09-14T10:26:20;9.13;;;3.20;;
8626;SDS011;4351;51.422;6.794;2022-09-14T10:28:51;5.87;;;3.00;;
8626;SDS011;4351;51.422;6.794;2022-09-14T10:31:22;7.57;;;3.30;;
8626;SDS011;4351;51.422;6.794;2022-09-14T10:33:56;5.27;;;3.20;;
8626;SDS011;4351;51.422;6.794;2022-09-14T10:36:27;5.13;;;2.80;;
8626;SDS011;4351;51.422;6.794;2022-09-14T10:39:02;5.57;;;3.00;;
8626;SDS011;4351;51.422;6.794;2022-09-14T10:41:40;4.37;;;2.80;;
8626;SDS011;4351;51.422;6.794;2022-09-14T10:44:26;6.80;;;3.23;;
8626;SDS011;4351;51.422;6.794;2022-09-14T10:47:26;5.23;;;2.80;;
8626;SDS011;4351;51.422;6.794;2022-09-14T10:50:25;7.23;;;2.90;;
8626;SDS011;4351;51.422;6.794;2022-09-14T10:53:02;5.80;;;2.90;;
8626;SDS011;4351;51.422;6.794;2022-09-14T10:55:42;6.53;;;2.80;;
8626;SDS011;4351;51.422;6.794;2022-09-14T10:58:25;7.20;;;3.40;;
8626;SDS011;4351;51.422;6.794;2022-09-14T11:01:08;5.27;;;3.27;;
8626;SDS011;4351;51.422;6.794;2022-09-14T11:03:57;6.07;;;3.23;;
8626;SDS011;4351;51.422;6.794;2022-09-14T11:06:41;7.23;;;3.77;;
8626;SDS011;4351;51.422;6.794;2022-09-14T11:09:18;8.03;;;3.90;;
8626;SDS011;4351;51.422;6.794;2022-09-14T11:11:53;6.73;;;3.97;;
8626;SDS011;4351;51.422;6.794;2022-09-14T11:14:36;8.80;;;4.30;;
8626;SDS011;4351;51.422;6.794;2022-09-14T11:17:30;7.43;;;4.10;;
8626;SDS011;4351;51.422;6.794;2022-09-14T11:20:14;9.30;;;5.13;;
8626;SDS011;4351;51.422;6.794;2022-09-14T11:22:55;8.97;;;5.27;;
8626;SDS011;4351;51.422;6.794;2022-09-14T11:25:41;8.57;;;4.80;;
8626;SDS011;4351;51.422;6.794;2022-09-14T11:28:16;9.17;;;4.73;;
8626;SDS011;4351;51.422;6.794;2022-09-14T11:30:47;6.87;;;5.00;;
8626;SDS011;4351;51.422;6.794;2022-09-14T11:33:22;6.57;;;5.13;;
8626;SDS011;4351;51.422;6.794;2022-09-14T11:35:59;8.73;;;5.90;;
8626;SDS011;4351;51.422;6.794;2022-09-14T11:38:33;9.37;;;5.83;;
8626;SDS011;4351;51.422;6.794;2022-09-14T11:41:06;5.93;;;4.50;;
8626;SDS011;4351;51.422;6.794;2022-09-14T11:43:44;5.00;;;3.90;;
8626;SDS011;4351;51.422;6.794;2022-09-14T11:46:17;4.80;;;2.70;;
8626;SDS011;4351;51.422;6.794;2022-09-14T11:48:50;4.73;;;2.20;;
8626;SDS011;4351;51.422;6.794;2022-09-14T11:51:26;10.43;;;3.27;;
8626;SDS011;4351;51.422;6.794;2022-09-14T11:53:59;4.13;;;2.10;;
8626;SDS011;4351;51.422;6.794;2022-09-14T11:56:28;3.50;;;2.20;;
8626;SDS011;4351;51.422;6.794;2022-09-14T11:59:00;4.80;;;2.50;;
8626;SDS011;4351;51.422;6.794;2022-09-14T12:01:32;3.53;;;2.40;;
8626;SDS011;4351;51.422;6.794;2022-09-14T12:04:07;4.63;;;2.60;;
8626;SDS011;4351;51.422;6.794;2022-09-14T12:06:46;3.40;;;2.00;;
8626;SDS011;4351;51.422;6.794;2022-09-14T12:15:11;4.10;;;1.63;;
8626;SDS011;4351;51.422;6.794;2022-09-14T12:17:45;3.20;;;1.70;;
8626;SDS011;4351;51.422;6.794;2022-09-14T12:23:12;4.67;;;1.80;;
8626;SDS011;4351;51.422;6.794;2022-09-14T12:25:53;3.40;;;1.73;;
8626;SDS011;4351;51.422;6.794;2022-09-14T12:28:26;4.57;;;1.97;;
8626;SDS011;4351;51.422;6.794;2022-09-14T12:31:09;4.30;;;2.10;;
8626;SDS011;4351;51.422;6.794;2022-09-14T12:33:40;5.23;;;1.80;;
8626;SDS011;4351;51.422;6.794;2022-09-14T12:39:28;5.10;;;2.20;;
8626;SDS011;4351;51.422;6.794;2022-09-14T12:44:52;4.00;;;1.87;;
8626;SDS011;4351;51.422;6.794;2022-09-14T12:47:46;5.93;;;2.57;;
8626;SDS011;4351;51.422;6.794;2022-09-14T12:50:18;6.20;;;2.50;;
8626;SDS011;4351;51.422;6.794;2022-09-14T12:55:45;5.23;;;2.57;;
8626;SDS011;4351;51.422;6.794;2022-09-14T12:58:26;4.17;;;1.97;;
8626;SDS011;4351;51.422;6.794;2022-09-14T13:01:16;3.67;;;2.00;;
8626;SDS011;4351;51.422;6.794;2022-09-14T13:03:55;5.37;;;2.00;;
8626;SDS011;4351;51.422;6.794;2022-09-14T13:06:28;3.67;;;2.13;;
8626;SDS011;4351;51.422;6.794;2022-09-14T13:09:02;3.53;;;2.00;;
8626;SDS011;4351;51.422;6.794;2022-09-14T13:11:36;3.57;;;1.60;;
8626;SDS011;4351;51.422;6.794;2022-09-14T13:14:10;3.70;;;1.60;;
8626;SDS011;4351;51.422;6.794;2022-09-14T13:16:43;3.50;;;1.37;;
8626;SDS011;4351;51.422;6.794;2022-09-14T13:19:22;2.40;;;1.07;;
8626;SDS011;4351;51.422;6.794;2022-09-14T13:21:54;3.40;;;1.43;;
8626;SDS011;4351;51.422;6.794;2022-09-14T13:24:25;2.57;;;1.30;;
8626;SDS011;4351;51.422;6.794;2022-09-14T13:26:58;2.33;;;1.50;;
8626;SDS011;4351;51.422;6.794;2022-09-14T13:29:29;2.83;;;1.60;;
8626;SDS011;4351;51.422;6.794;2022-09-14T13:31:57;3.67;;;1.60;;
8626;SDS011;4351;51.422;6.794;2022-09-14T13:34:32;3.30;;;1.70;;
8626;SDS011;4351;51.422;6.794;2022-09-14T13:37:03;4.03;;;1.80;;
8626;SDS011;4351;51.422;6.794;2022-09-14T13:39:32;3.03;;;1.80;;
8626;SDS011;4351;51.422;6.794;2022-09-14T13:42:03;2.43;;;1.57;;
8626;SDS011;4351;51.422;6.794;2022-09-14T13:44:33;3.60;;;1.63;;
8626;SDS011;4351;51.422;6.794;2022-09-14T13:47:07;3.90;;;2.00;;
8626;SDS011;4351;51.422;6.794;2022-09-14T13:49:42;5.17;;;2.17;;
8626;SDS011;4351;51.422;6.794;2022-09-14T13:52:22;2.53;;;2.00;;
8626;SDS011;4351;51.422;6.794;2022-09-14T13:55:17;5.53;;;2.60;;
8626;SDS011;4351;51.422;6.794;2022-09-14T13:58:10;3.83;;;2.13;;
8626;SDS011;4351;51.422;6.794;2022-09-14T14:00:45;5.70;;;2.60;;
8626;SDS011;4351;51.422;6.794;2022-09-14T14:03:22;4.37;;;2.37;;
8626;SDS011;4351;51.422;6.794;2022-09-14T14:05:55;3.77;;;2.23;;
8626;SDS011;4351;51.422;6.794;2022-09-14T14:08:26;4.63;;;2.27;;
8626;SDS011;4351;51.422;6.794;2022-09-14T14:10:58;2.93;;;1.97;;
8626;SDS011;4351;51.422;6.794;2022-09-14T14:13:30;5.10;;;2.23;;
8626;SDS011;4351;51.422;6.794;2022-09-14T14:16:17;3.40;;;2.20;;
8626;SDS011;4351;51.422;6.794;2022-09-14T14:18:50;3.03;;;1.83;;
8626;SDS011;4351;51.422;6.794;2022-09-14T14:24:37;5.60;;;2.33;;
8626;SDS011;4351;51.422;6.794;2022-09-14T14:27:27;6.60;;;2.67;;
8626;SDS011;4351;51.422;6.794;2022-09-14T14:29:58;2.77;;;2.20;;
8626;SDS011;4351;51.422;6.794;2022-09-14T14:32:32;6.50;;;2.80;;
8626;SDS011;4351;51.422;6.794;2022-09-14T14:35:05;5.13;;;2.57;;
8626;SDS011;4351;51.422;6.794;2022-09-14T14:37:41;3.90;;;2.10;;
8626;SDS011;4351;51.422;6.794;2022-09-14T14:40:14;4.53;;;2.50;;
8626;SDS011;4351;51.422;6.794;2022-09-14T14:42:44;5.63;;;2.40;;
8626;SDS011;4351;51.422;6.794;2022-09-14T14:45:13;4.77;;;2.67;;
8626;SDS011;4351;51.422;6.794;2022-09-14T14:48:04;6.63;;;2.60;;
8626;SDS011;4351;51.422;6.794;2022-09-14T14:50:39;3.73;;;2.33;;
8626;SDS011;4351;51.422;6.794;2022-09-14T14:53:10;3.20;;;2.23;;
8626;SDS011;4351;51.422;6.794;2022-09-14T14:55:47;4.17;;;2.30;;
8626;SDS011;4351;51.422;6.794;2022-09-14T14:58:19;6.10;;;3.00;;
8626;SDS011;4351;51.422;6.794;2022-09-14T15:00:49;4.73;;;2.33;;
8626;SDS011;4351;51.422;6.794;2022-09-14T15:03:18;3.97;;;2.70;;
8626;SDS011;4351;51.422;6.794;2022-09-14T15:05:47;4.07;;;2.37;;
8626;SDS011;4351;51.422;6.794;2022-09-14T15:08:17;4.17;;;2.50;;
8626;SDS011;4351;51.422;6.794;2022-09-14T15:10:47;3.63;;;2.07;;
8626;SDS011;4351;51.422;6.794;2022-09-14T15:13:22;5.27;;;2.67;;
8626;SDS011;4351;51.422;6.794;2022-09-14T15:15:50;6.07;;;3.20;;
8626;SDS011;4351;51.422;6.794;2022-09-14T15:18:19;4.70;;;2.60;;
8626;SDS011;4351;51.422;6.794;2022-09-14T15:20:47;4.37;;;3.30;;
8626;SDS011;4351;51.422;6.794;2022-09-14T15:23:15;3.83;;;3.10;;
8626;SDS011;4351;51.422;6.794;2022-09-14T15:25:50;7.47;;;3.77;;
8626;SDS011;4351;51.422;6.794;2022-09-14T15:28:19;6.13;;;2.63;;
8626;SDS011;4351;51.422;6.794;2022-09-14T15:30:47;4.00;;;2.57;;
8626;SDS011;4351;51.422;6.794;2022-09-14T15:33:15;5.43;;;3.50;;
8626;SDS011;4351;51.422;6.794;2022-09-14T15:35:51;4.43;;;3.20;;
8626;SDS011;4351;51.422;6.794;2022-09-14T15:38:22;6.07;;;3.30;;
8626;SDS011;4351;51.422;6.794;2022-09-14T15:40:52;4.77;;;2.97;;
8626;SDS011;4351;51.422;6.794;2022-09-14T15:43:23;6.53;;;3.47;;
8626;SDS011;4351;51.422;6.794;2022-09-14T15:45:51;4.93;;;2.80;;
8626;SDS011;4351;51.422;6.794;2022-09-14T15:48:20;8.07;;;3.03;;
8626;SDS011;4351;51.422;6.794;2022-09-14T15:50:48;5.03;;;3.50;;
8626;SDS011;4351;51.422;6.794;2022-09-14T15:53:16;7.47;;;3.47;;
8626;SDS011;4351;51.422;6.794;2022-09-14T15:55:44;7.53;;;3.67;;
8626;SDS011;4351;51.422;6.794;2022-09-14T15:58:14;7.23;;;3.70;;
8626;SDS011;4351;51.422;6.794;2022-09-14T16:00:42;5.73;;;3.90;;
8626;SDS011;4351;51.422;6.794;2022-09-14T16:03:11;6.00;;;3.33;;
8626;SDS011;4351;51.422;6.794;2022-09-14T16:05:39;5.07;;;3.30;;
8626;SDS011;4351;51.422;6.794;2022-09-14T16:08:07;8.13;;;3.63;;
8626;SDS011;4351;51.422;6.794;2022-09-14T16:10:35;7.27;;;3.53;;
8626;SDS011;4351;51.422;6.794;2022-09-14T16:13:03;6.50;;;3.70;;
8626;SDS011;4351;51.422;6.794;2022-09-14T16:15:34;5.77;;;3.13;;
8626;SDS011;4351;51.422;6.794;2022-09-14T16:18:03;7.20;;;3.33;;
8626;SDS011;4351;51.422;6.794;2022-09-14T16:20:35;6.27;;;3.37;;
8626;SDS011;4351;51.422;6.794;2022-09-14T16:23:03;5.97;;;3.57;;
8626;SDS011;4351;51.422;6.794;2022-09-14T16:25:35;5.33;;;3.00;;